Time,TemperatureF,DewpointF,PressureIn,WindDirection,WindDirectionDegrees,WindSpeedMPH,WindSpeedGustMPH,Humidity,HourlyPrecipIn,Conditions,Clouds,dailyrainin,SoftwareType,DateUTC
2013-04-18 00:02:00,39.9,17.5,29.62,WNW,292,5.8,5.8,40,0.00,CLR,,0.00,WeatherDisplay:10.37,2013-04-18 06:02:00,
2013-04-18 00:07:00,39.9,16.9,29.62,West,270,0.0,0.0,39,0.00,CLR,,0.00,WeatherDisplay:10.37,2013-04-18 06:07:00,
2013-04-18 00:12:00,39.9,17.5,29.62,SW,225,1.2,1.2,40,0.00,CLR,,0.00,WeatherDisplay:10.37,2013-04-18 06:12:00,
2013-04-18 00:17:00,39.7,16.8,29.63,West,270,3.1,3.1,39,0.00,CLR,,0.00,WeatherDisplay:10.37,2013-04-18 06:17:00,
2013-04-18 00:22:00,39.6,17.2,29.63,NW,315,1.2,1.2,40,0.00,CLR,,0.00,WeatherDisplay:10.37,2013-04-18 06:22:00,
2013-04-18 00:27:00,39.6,17.2,29.63,North,0,1.2,1.2,40,0.00,CLR,,0.00,WeatherDisplay:10.37,2013-04-18 06:27:00,
2013-04-18 00:32:00,39.4,17.0,29.63,NNW,338,2.3,2.3,40,0.00,CLR,,0.00,WeatherDisplay:10.37,2013-04-18 06:32:00,
2013-04-18 00:37:00,39.2,16.9,29.63,SW,225,4.9,4.9,40,0.00,CLR,,0.00,WeatherDisplay:10.37,2013-04-18 06:37:00,
2013-04-18 00:42:00,39.2,16.9,29.63,NW,315,2.3,2.3,40,0.00,CLR,,0.00,WeatherDisplay:10.37,2013-04-18 06:42:00,
2013-04-18 00:47:00,39.2,16.9,29.63,SE,135,1.2,1.2,40,0.00,CLR,,0.00,WeatherDisplay:10.37,2013-04-18 06:47:00,
2013-04-18 00:52:00,39.2,16.9,29.63,WSW,248,1.4,1.4,40,0.00,CLR,,0.00,WeatherDisplay:10.37,2013-04-18 06:52:00,
2013-04-18 00:57:00,39.0,16.7,29.63,WSW,248,1.2,2.2,40,0.00,CLR,,0.00,WeatherDisplay:10.37,2013-04-18 06:57:00,
2013-04-18 01:02:00,38.8,16.5,29.64,WSW,248,2.3,2.3,40,0.00,CLR,,0.00,WeatherDisplay:10.37,2013-04-18 07:02:00,
2013-04-18 01:07:00,38.7,17.0,29.63,WNW,292,3.5,3.5,41,0.00,CLR,,0.00,WeatherDisplay:10.37,2013-04-18 07:07:00,
2013-04-18 01:12:00,38.7,17.0,29.63,NW,315,2.3,2.3,41,0.00,CLR,,0.00,WeatherDisplay:10.37,2013-04-18 07:12:00,
2013-04-18 01:17:00,38.5,16.8,29.63,West,270,2.3,2.3,41,0.00,CLR,,0.00,WeatherDisplay:10.37,2013-04-18 07:17:00,
2013-04-18 01:22:00,38.5,17.3,29.64,West,270,2.3,2.3,42,0.00,CLR,,0.00,WeatherDisplay:10.37,2013-04-18 07:22:00,
2013-04-18 01:27:00,38.3,17.2,29.64,West,270,2.3,2.3,42,0.00,CLR,,0.00,WeatherDisplay:10.37,2013-04-18 07:27:00,
2013-04-18 01:32:00,38.1,17.0,29.64,NW,315,1.2,1.2,42,0.00,CLR,,0.00,WeatherDisplay:10.37,2013-04-18 07:32:00,
2013-04-18 01:37:00,37.9,16.9,29.64,North,0,1.8,1.8,42,0.00,CLR,,0.00,WeatherDisplay:10.37,2013-04-18 07:37:00,
2013-04-18 01:42:00,37.8,16.7,29.64,NW,315,2.3,2.3,42,0.00,CLR,,0.00,WeatherDisplay:10.37,2013-04-18 07:42:00,
2013-04-18 01:47:00,37.8,16.7,29.64,NW,315,2.3,2.3,42,0.00,CLR,,0.00,WeatherDisplay:10.37,2013-04-18 07:47:00,
2013-04-18 01:52:00,37.6,16.5,29.64,WNW,292,4.6,4.6,42,0.00,CLR,,0.00,WeatherDisplay:10.37,2013-04-18 07:52:00,
2013-04-18 01:57:00,37.4,16.4,29.64,NW,315,1.2,1.2,42,0.00,CLR,,0.00,WeatherDisplay:10.37,2013-04-18 07:57:00,
2013-04-18 02:02:00,37.4,16.4,29.64,WNW,292,3.5,3.5,42,0.00,CLR,,0.00,WeatherDisplay:10.37,2013-04-18 08:02:00,
2013-04-18 02:07:00,37.2,16.2,29.64,WSW,248,1.2,1.2,42,0.00,CLR,,0.00,WeatherDisplay:10.37,2013-04-18 08:07:00,
2013-04-18 02:12:00,37.0,15.5,29.64,West,270,4.6,4.6,41,0.00,CLR,,0.00,WeatherDisplay:10.37,2013-04-18 08:12:00,
2013-04-18 02:17:00,37.0,15.5,29.64,NW,315,4.6,6.2,41,0.00,CLR,,0.00,WeatherDisplay:10.37,2013-04-18 08:17:00,
2013-04-18 02:22:00,36.9,14.8,29.64,NW,315,4.6,4.6,40,0.00,CLR,,0.00,WeatherDisplay:10.37,2013-04-18 08:22:00,
2013-04-18 02:27:00,36.9,14.8,29.64,NW,315,4.6,4.6,40,0.00,CLR,,0.00,WeatherDisplay:10.37,2013-04-18 08:27:00,
2013-04-18 02:32:00,36.7,14.6,29.64,NW,315,2.4,2.4,40,0.00,CLR,,0.00,WeatherDisplay:10.37,2013-04-18 08:32:00,
2013-04-18 02:37:00,36.5,14.4,29.64,West,270,4.6,4.6,40,0.00,CLR,,0.00,WeatherDisplay:10.37,2013-04-18 08:37:00,
2013-04-18 02:42:00,36.3,14.3,29.64,West,270,4.6,4.6,40,0.00,CLR,,0.00,WeatherDisplay:10.37,2013-04-18 08:42:00,
2013-04-18 02:47:00,36.0,13.9,29.64,NW,315,4.6,4.6,40,0.00,CLR,,0.00,WeatherDisplay:10.37,2013-04-18 08:47:00,
2013-04-18 02:52:00,35.8,13.8,29.64,NNW,338,5.9,5.9,40,0.00,CLR,,0.00,WeatherDisplay:10.37,2013-04-18 08:52:00,
2013-04-18 02:57:00,35.6,13.0,29.63,NW,315,4.6,4.6,39,0.00,CLR,,0.00,WeatherDisplay:10.37,2013-04-18 08:57:00,
2013-04-18 03:02:00,35.6,13.0,29.63,WNW,292,4.6,4.6,39,0.00,CLR,,0.00,WeatherDisplay:10.37,2013-04-18 09:02:00,
2013-04-18 03:07:00,35.4,12.9,29.63,NNW,338,3.5,3.5,39,0.00,CLR,,0.00,WeatherDisplay:10.37,2013-04-18 09:07:00,
2013-04-18 03:12:00,35.2,12.7,29.63,NW,315,4.6,4.6,39,0.00,CLR,,0.00,WeatherDisplay:10.37,2013-04-18 09:12:00,
2013-04-18 03:17:00,35.2,12.7,29.63,WNW,292,3.5,3.5,39,0.00,CLR,,0.00,WeatherDisplay:10.37,2013-04-18 09:17:00,
2013-04-18 03:22:00,35.1,12.6,29.63,NW,315,5.8,5.8,39,0.00,CLR,,0.00,WeatherDisplay:10.37,2013-04-18 09:22:00,
2013-04-18 03:27:00,35.1,12.6,29.63,NE,45,3.5,3.5,39,0.00,CLR,,0.00,WeatherDisplay:10.37,2013-04-18 09:27:00,
2013-04-18 03:32:00,34.9,13.0,29.63,WNW,292,5.8,5.8,40,0.00,CLR,,0.00,WeatherDisplay:10.37,2013-04-18 09:32:00,
2013-04-18 03:37:00,34.9,13.0,29.63,North,0,2.3,2.3,40,0.00,CLR,,0.00,WeatherDisplay:10.37,2013-04-18 09:37:00,
2013-04-18 03:42:00,34.5,12.6,29.63,NW,315,5.8,5.8,40,0.00,CLR,,0.00,WeatherDisplay:10.37,2013-04-18 09:42:00,
2013-04-18 03:47:00,34.5,12.6,29.63,North,0,3.5,3.5,40,0.00,CLR,,0.00,WeatherDisplay:10.37,2013-04-18 09:47:00,
2013-04-18 03:52:00,34.3,13.0,29.63,North,0,4.6,4.6,41,0.00,CLR,,0.00,WeatherDisplay:10.37,2013-04-18 09:52:00,
2013-04-18 03:57:00,34.2,12.9,29.63,North,0,3.5,3.5,41,0.00,CLR,,0.00,WeatherDisplay:10.37,2013-04-18 09:57:00,
2013-04-18 04:02:00,34.2,12.9,29.64,North,0,2.3,2.3,41,0.00,CLR,,0.00,WeatherDisplay:10.37,2013-04-18 10:02:00,
2013-04-18 04:07:00,34.0,12.7,29.64,NNW,338,1.2,1.2,41,0.00,CLR,,0.00,WeatherDisplay:10.37,2013-04-18 10:07:00,
2013-04-18 04:12:00,33.8,13.1,29.64,NNW,338,4.6,4.6,42,0.00,CLR,,0.00,WeatherDisplay:10.37,2013-04-18 10:12:00,
2013-04-18 04:17:00,33.6,12.9,29.64,NW,315,4.6,4.6,42,0.00,CLR,,0.00,WeatherDisplay:10.37,2013-04-18 10:17:00,
2013-04-18 04:22:00,33.6,12.9,29.64,NW,315,3.5,3.5,42,0.00,CLR,,0.00,WeatherDisplay:10.37,2013-04-18 10:22:00,
2013-04-18 04:27:00,33.4,12.8,29.64,WNW,292,3.5,3.5,42,0.00,CLR,,0.00,WeatherDisplay:10.37,2013-04-18 10:27:00,
2013-04-18 04:32:00,33.4,12.2,29.64,ENE,68,2.4,2.4,41,0.00,CLR,,0.00,WeatherDisplay:10.37,2013-04-18 10:32:00,
2013-04-18 04:37:00,33.4,12.2,29.64,WNW,292,3.5,3.5,41,0.00,CLR,,0.00,WeatherDisplay:10.37,2013-04-18 10:37:00,
2013-04-18 04:42:00,33.3,12.1,29.64,North,0,1.2,1.2,41,0.00,CLR,,0.00,WeatherDisplay:10.37,2013-04-18 10:42:00,
2013-04-18 04:47:00,33.1,11.9,29.64,WNW,292,2.3,2.3,41,0.00,CLR,,0.00,WeatherDisplay:10.37,2013-04-18 10:47:00,
2013-04-18 04:52:00,32.9,11.7,29.64,NW,315,5.8,5.8,41,0.00,CLR,,0.00,WeatherDisplay:10.37,2013-04-18 10:52:00,
2013-04-18 04:57:00,32.7,11.6,29.64,West,270,2.3,2.3,41,0.00,CLR,,0.00,WeatherDisplay:10.37,2013-04-18 10:57:00,
2013-04-18 05:02:00,32.7,11.6,29.64,North,0,1.8,1.8,41,0.00,CLR,,0.00,WeatherDisplay:10.37,2013-04-18 11:02:00,
2013-04-18 05:07:00,32.5,11.4,29.64,WNW,292,2.4,2.4,41,0.00,CLR,,0.00,WeatherDisplay:10.37,2013-04-18 11:07:00,
2013-04-18 05:12:00,32.5,11.4,29.64,NW,315,3.5,3.5,41,0.00,CLR,,0.00,WeatherDisplay:10.37,2013-04-18 11:12:00,
2013-04-18 05:17:00,32.5,11.4,29.64,NW,315,2.3,2.3,41,0.00,CLR,,0.00,WeatherDisplay:10.37,2013-04-18 11:17:00,
2013-04-18 05:22:00,32.4,11.2,29.64,NW,315,2.3,2.3,41,0.00,CLR,,0.00,WeatherDisplay:10.37,2013-04-18 11:22:00,
2013-04-18 05:27:00,32.4,10.7,29.64,NW,315,4.6,4.6,40,0.00,CLR,,0.00,WeatherDisplay:10.37,2013-04-18 11:27:00,
2013-04-18 05:32:00,32.4,10.7,29.64,NNW,338,3.5,3.5,40,0.00,CLR,,0.00,WeatherDisplay:10.37,2013-04-18 11:32:00,
2013-04-18 05:37:00,32.2,10.0,29.64,NW,315,6.9,6.9,39,0.00,CLR,,0.00,WeatherDisplay:10.37,2013-04-18 11:37:00,
2013-04-18 05:42:00,32.0,9.2,29.64,North,0,7.6,7.6,38,0.00,CLR,,0.00,WeatherDisplay:10.37,2013-04-18 11:42:00,
2013-04-18 05:47:00,32.0,9.2,29.64,North,0,3.5,3.5,38,0.00,CLR,,0.00,WeatherDisplay:10.37,2013-04-18 11:47:00,
2013-04-18 05:52:00,32.0,9.2,29.65,WNW,292,4.6,4.6,38,0.00,CLR,,0.00,WeatherDisplay:10.37,2013-04-18 11:52:00,
2013-04-18 05:57:00,31.8,8.5,29.65,WNW,292,2.3,2.3,37,0.00,CLR,,0.00,WeatherDisplay:10.37,2013-04-18 11:57:00,
2013-04-18 06:02:00,31.6,8.3,29.65,NW,315,2.3,2.3,37,0.00,CLR,,0.00,WeatherDisplay:10.37,2013-04-18 12:02:00,
2013-04-18 06:07:00,31.6,8.9,29.65,NW,315,1.2,0.0,38,0.00,CLR,,0.00,WeatherDisplay:10.37,2013-04-18 12:07:00,
2013-04-18 06:12:00,31.5,8.7,29.65,NW,315,2.4,2.4,38,0.00,CLR,,0.00,WeatherDisplay:10.37,2013-04-18 12:12:00,
2013-04-18 06:17:00,31.3,8.6,29.66,WNW,292,3.1,3.1,38,0.00,CLR,,0.00,WeatherDisplay:10.37,2013-04-18 12:17:00,
2013-04-18 06:22:00,31.3,8.6,29.66,NW,315,1.2,1.2,38,0.00,CLR,,0.00,WeatherDisplay:10.37,2013-04-18 12:22:00,
2013-04-18 06:27:00,31.1,8.4,29.66,NW,315,1.2,0.0,38,0.00,CLR,,0.00,WeatherDisplay:10.37,2013-04-18 12:27:00,
2013-04-18 06:32:00,30.9,8.2,29.66,NNW,338,0.0,0.0,38,0.00,CLR,,0.00,WeatherDisplay:10.37,2013-04-18 12:32:00,
2013-04-18 06:37:00,30.7,8.7,29.66,NW,315,2.3,2.3,39,0.00,CLR,,0.00,WeatherDisplay:10.37,2013-04-18 12:37:00,
2013-04-18 06:42:00,30.6,8.5,29.66,WNW,292,1.2,0.0,39,0.00,CLR,,0.00,WeatherDisplay:10.37,2013-04-18 12:42:00,
2013-04-18 06:47:00,30.6,7.9,29.66,North,0,0.2,0.2,38,0.00,CLR,,0.00,WeatherDisplay:10.37,2013-04-18 12:47:00,
2013-04-18 06:52:00,30.6,7.9,29.66,NNW,338,0.5,0.5,38,0.00,CLR,,0.00,WeatherDisplay:10.37,2013-04-18 12:52:00,
2013-04-18 06:57:00,30.4,7.8,29.66,SW,225,1.2,0.0,38,0.00,CLR,,0.00,WeatherDisplay:10.37,2013-04-18 12:57:00,
2013-04-18 07:03:00,30.2,7.6,29.67,NW,315,1.2,1.2,38,0.00,CLR,,0.00,WeatherDisplay:10.37,2013-04-18 13:03:00,
2013-04-18 07:08:00,30.2,8.2,29.67,NW,315,0.0,0.0,39,0.00,CLR,,0.00,WeatherDisplay:10.37,2013-04-18 13:08:00,
2013-04-18 07:13:00,30.2,8.2,29.67,NE,45,2.4,2.4,39,0.00,CLR,,0.00,WeatherDisplay:10.37,2013-04-18 13:13:00,
2013-04-18 07:18:00,30.4,8.3,29.68,WSW,248,1.2,0.0,39,0.00,CLR,,0.00,WeatherDisplay:10.37,2013-04-18 13:18:00,
2013-04-18 07:23:00,30.6,8.5,29.68,NW,315,2.3,2.3,39,0.00,CLR,,0.00,WeatherDisplay:10.37,2013-04-18 13:23:00,
2013-04-18 07:28:00,30.7,8.7,29.68,WSW,248,2.3,2.3,39,0.00,CLR,,0.00,WeatherDisplay:10.37,2013-04-18 13:28:00,
2013-04-18 07:33:00,31.1,9.0,29.68,NW,315,2.3,2.3,39,0.00,CLR,,0.00,WeatherDisplay:10.37,2013-04-18 13:33:00,
2013-04-18 07:38:00,31.3,8.6,29.68,NW,315,4.0,4.0,38,0.00,CLR,,0.00,WeatherDisplay:10.37,2013-04-18 13:38:00,
2013-04-18 07:43:00,31.5,8.7,29.69,NW,315,2.6,2.6,38,0.00,CLR,,0.00,WeatherDisplay:10.37,2013-04-18 13:43:00,
2013-04-18 07:48:00,31.6,8.3,29.69,WNW,292,3.5,3.5,37,0.00,CLR,,0.00,WeatherDisplay:10.37,2013-04-18 13:48:00,
2013-04-18 07:53:00,31.8,8.5,29.69,WNW,292,2.3,2.3,37,0.00,CLR,,0.00,WeatherDisplay:10.37,2013-04-18 13:53:00,
2013-04-18 07:58:00,31.8,8.5,29.69,West,270,4.6,4.6,37,0.00,CLR,,0.00,WeatherDisplay:10.37,2013-04-18 13:58:00,
2013-04-18 08:03:00,31.8,8.5,29.69,WSW,248,4.6,4.6,37,0.00,CLR,,0.00,WeatherDisplay:10.37,2013-04-18 14:03:00,
2013-04-18 08:08:00,32.0,8.6,29.69,NNW,338,4.6,4.6,37,0.00,CLR,,0.00,WeatherDisplay:10.37,2013-04-18 14:08:00,
2013-04-18 08:13:00,32.2,8.8,29.69,NNW,338,4.7,4.7,37,0.00,CLR,,0.00,WeatherDisplay:10.37,2013-04-18 14:13:00,
2013-04-18 08:18:00,32.0,8.6,29.69,NW,315,5.8,5.8,37,0.00,CLR,,0.00,WeatherDisplay:10.37,2013-04-18 14:18:00,
2013-04-18 08:23:00,32.4,8.9,29.69,NW,315,4.6,4.6,37,0.00,CLR,,0.00,WeatherDisplay:10.37,2013-04-18 14:23:00,
2013-04-18 08:28:00,32.5,9.1,29.69,NW,315,3.5,3.5,37,0.00,CLR,,0.00,WeatherDisplay:10.37,2013-04-18 14:28:00,
2013-04-18 08:33:00,32.7,9.3,29.69,NNW,338,3.5,4.3,37,0.00,CLR,,0.00,WeatherDisplay:10.37,2013-04-18 14:33:00,
2013-04-18 08:38:00,32.7,8.7,29.69,NW,315,3.5,3.5,36,0.00,CLR,,0.00,WeatherDisplay:10.37,2013-04-18 14:38:00,
2013-04-18 08:43:00,33.1,9.0,29.69,NW,315,5.8,5.8,36,0.00,CLR,,0.00,WeatherDisplay:10.37,2013-04-18 14:43:00,
2013-04-18 08:48:00,32.9,8.8,29.69,NW,315,3.5,3.5,36,0.00,CLR,,0.00,WeatherDisplay:10.37,2013-04-18 14:48:00,
2013-04-18 08:53:00,33.4,9.3,29.69,WSW,248,4.6,4.6,36,0.00,CLR,,0.00,WeatherDisplay:10.37,2013-04-18 14:53:00,
2013-04-18 08:58:00,33.6,9.5,29.70,NW,315,4.6,4.6,36,0.00,CLR,,0.00,WeatherDisplay:10.37,2013-04-18 14:58:00,
2013-04-18 09:03:00,33.8,9.6,29.70,WNW,292,3.5,3.5,36,0.00,CLR,,0.00,WeatherDisplay:10.37,2013-04-18 15:03:00,
2013-04-18 09:08:00,34.2,9.3,29.69,NNW,338,5.8,5.8,35,0.00,CLR,,0.00,WeatherDisplay:10.37,2013-04-18 15:08:00,
2013-04-18 09:13:00,34.2,9.3,29.70,West,270,4.0,4.0,35,0.00,CLR,,0.00,WeatherDisplay:10.37,2013-04-18 15:13:00,
2013-04-18 09:18:00,34.5,9.0,29.70,SSW,202,3.5,3.5,34,0.00,CLR,,0.00,WeatherDisplay:10.37,2013-04-18 15:18:00,
2013-04-18 09:23:00,34.9,9.3,29.70,NW,315,5.8,5.8,34,0.00,CLR,,0.00,WeatherDisplay:10.37,2013-04-18 15:23:00,
2013-04-18 09:28:00,35.2,9.6,29.70,NNW,338,4.6,4.6,34,0.00,CLR,,0.00,WeatherDisplay:10.37,2013-04-18 15:28:00,
2013-04-18 09:33:00,35.6,9.3,29.70,NNW,338,4.6,4.6,33,0.00,CLR,,0.00,WeatherDisplay:10.37,2013-04-18 15:33:00,
2013-04-18 09:38:00,35.8,8.8,29.69,NNW,338,4.6,4.6,32,0.00,CLR,,0.00,WeatherDisplay:10.37,2013-04-18 15:38:00,
2013-04-18 09:43:00,36.0,8.9,29.70,NNW,338,4.6,4.6,32,0.00,CLR,,0.00,WeatherDisplay:10.37,2013-04-18 15:43:00,
2013-04-18 09:48:00,36.1,9.8,29.69,North,0,4.6,4.6,33,0.00,CLR,,0.00,WeatherDisplay:10.37,2013-04-18 15:48:00,
2013-04-18 09:53:00,36.5,8.7,29.69,West,270,3.5,3.5,31,0.00,CLR,,0.00,WeatherDisplay:10.37,2013-04-18 15:53:00,
2013-04-18 09:58:00,37.2,9.3,29.69,NW,315,4.6,4.6,31,0.00,CLR,,0.00,WeatherDisplay:10.37,2013-04-18 15:58:00,
2013-04-18 10:03:00,37.8,9.1,29.69,NW,315,4.7,4.7,30,0.00,CLR,,0.00,WeatherDisplay:10.37,2013-04-18 16:03:00,
2013-04-18 10:08:00,38.1,10.1,29.69,NNW,338,2.3,2.3,31,0.00,CLR,,0.00,WeatherDisplay:10.37,2013-04-18 16:08:00,
2013-04-18 10:13:00,38.7,9.8,29.69,North,0,8.1,8.1,30,0.00,CLR,,0.00,WeatherDisplay:10.37,2013-04-18 16:13:00,
2013-04-18 10:18:00,38.8,9.2,29.69,WNW,292,5.8,5.8,29,0.00,CLR,,0.00,WeatherDisplay:10.37,2013-04-18 16:18:00,
2013-04-18 10:23:00,39.6,9.9,29.69,NW,315,5.8,5.8,29,0.00,CLR,,0.00,WeatherDisplay:10.37,2013-04-18 16:23:00,
2013-04-18 10:28:00,39.7,10.0,29.69,NNW,338,7.1,7.1,29,0.00,CLR,,0.00,WeatherDisplay:10.37,2013-04-18 16:28:00,
2013-04-18 10:33:00,39.7,10.8,29.69,NNE,22,4.6,4.6,30,0.00,CLR,,0.00,WeatherDisplay:10.37,2013-04-18 16:33:00,
2013-04-18 10:38:00,40.8,11.0,29.69,North,0,8.1,8.1,29,0.00,CLR,,0.00,WeatherDisplay:10.37,2013-04-18 16:38:00,
2013-04-18 10:44:00,41.5,10.8,29.68,WNW,292,4.6,4.6,28,0.00,CLR,,0.00,WeatherDisplay:10.37,2013-04-18 16:44:00,
2013-04-18 10:49:00,42.1,10.5,29.68,WSW,248,6.9,6.9,27,0.00,CLR,,0.00,WeatherDisplay:10.37,2013-04-18 16:49:00,
2013-04-18 10:54:00,42.4,9.9,29.68,NNW,338,8.1,8.1,26,0.00,CLR,,0.00,WeatherDisplay:10.37,2013-04-18 16:54:00,
2013-04-18 10:59:00,42.8,9.3,29.68,SW,225,4.6,4.6,25,0.00,CLR,,0.00,WeatherDisplay:10.37,2013-04-18 16:59:00,
2013-04-18 11:04:00,43.0,9.5,29.68,NE,45,5.8,5.8,25,0.00,CLR,,0.00,WeatherDisplay:10.37,2013-04-18 17:04:00,
2013-04-18 11:09:00,43.3,8.9,29.68,West,270,8.1,8.1,24,0.00,CLR,,0.00,WeatherDisplay:10.37,2013-04-18 17:09:00,
2013-04-18 11:14:00,43.9,9.4,29.68,NW,315,4.6,4.6,24,0.00,CLR,,0.00,WeatherDisplay:10.37,2013-04-18 17:14:00,
2013-04-18 11:19:00,44.6,9.0,29.68,NNW,338,5.8,5.8,23,0.00,CLR,,0.00,WeatherDisplay:10.37,2013-04-18 17:19:00,
2013-04-18 11:24:00,45.0,8.3,29.68,NW,315,5.8,5.8,22,0.00,CLR,,0.00,WeatherDisplay:10.37,2013-04-18 17:24:00,
2013-04-18 11:29:00,45.3,8.6,29.68,NNE,22,5.8,5.8,22,0.00,CLR,,0.00,WeatherDisplay:10.37,2013-04-18 17:29:00,
2013-04-18 11:34:00,45.7,7.9,29.68,SW,225,9.2,9.2,21,0.00,CLR,,0.00,WeatherDisplay:10.37,2013-04-18 17:34:00,
2013-04-18 11:39:00,45.7,8.9,29.68,NW,315,6.9,6.9,22,0.00,CLR,,0.00,WeatherDisplay:10.37,2013-04-18 17:39:00,
2013-04-18 11:44:00,46.2,9.4,29.69,NW,315,8.1,8.1,22,0.00,CLR,,0.00,WeatherDisplay:10.37,2013-04-18 17:44:00,
2013-04-18 11:49:00,46.0,9.2,29.68,NW,315,5.8,5.8,22,0.00,CLR,,0.00,WeatherDisplay:10.37,2013-04-18 17:49:00,
2013-04-18 11:54:00,46.4,8.5,29.68,WNW,292,8.1,8.1,21,0.00,CLR,,0.00,WeatherDisplay:10.37,2013-04-18 17:54:00,
2013-04-18 11:59:00,46.6,8.7,29.68,ENE,68,5.8,5.8,21,0.00,CLR,,0.00,WeatherDisplay:10.37,2013-04-18 17:59:00,
2013-04-18 12:04:00,47.1,8.0,29.68,NW,315,8.1,8.1,20,0.00,CLR,,0.00,WeatherDisplay:10.37,2013-04-18 18:04:00,
2013-04-18 12:09:00,47.3,9.3,29.68,NW,315,5.8,5.8,21,0.00,CLR,,0.00,WeatherDisplay:10.37,2013-04-18 18:09:00,
2013-04-18 12:14:00,47.7,8.5,29.68,WNW,292,5.9,5.9,20,0.00,CLR,,0.00,WeatherDisplay:10.37,2013-04-18 18:14:00,
2013-04-18 12:19:00,48.2,8.9,29.68,WSW,248,5.8,5.8,20,0.00,CLR,,0.00,WeatherDisplay:10.37,2013-04-18 18:19:00,
2013-04-18 12:24:00,48.0,6.4,29.68,NW,315,5.8,5.8,18,0.00,CLR,,0.00,WeatherDisplay:10.37,2013-04-18 18:24:00,
2013-04-18 12:29:00,46.2,6.1,29.68,NE,45,5.8,5.8,19,0.00,CLR,,0.00,WeatherDisplay:10.37,2013-04-18 18:29:00,
2013-04-18 12:34:00,45.9,4.7,29.68,NW,315,12.7,12.7,18,0.00,CLR,,0.00,WeatherDisplay:10.37,2013-04-18 18:34:00,
2013-04-18 12:39:00,45.7,6.8,29.68,West,270,5.8,5.8,20,0.00,CLR,,0.00,WeatherDisplay:10.37,2013-04-18 18:39:00,
2013-04-18 12:44:00,47.1,8.0,29.68,WNW,292,5.8,5.8,20,0.00,CLR,,0.00,WeatherDisplay:10.37,2013-04-18 18:44:00,
2013-04-18 12:49:00,47.8,7.5,29.68,WSW,248,6.9,6.9,19,0.00,CLR,,0.00,WeatherDisplay:10.37,2013-04-18 18:49:00,
2013-04-18 12:54:00,47.5,6.0,29.68,SSW,202,6.9,6.9,18,0.00,CLR,,0.00,WeatherDisplay:10.37,2013-04-18 18:54:00,
2013-04-18 12:59:00,47.3,8.2,29.68,NW,315,4.7,4.7,20,0.00,CLR,,0.00,WeatherDisplay:10.37,2013-04-18 18:59:00,
2013-04-18 13:04:00,47.8,5.0,29.68,WNW,292,5.8,5.8,17,0.00,CLR,,0.00,WeatherDisplay:10.37,2013-04-18 19:04:00,
2013-04-18 13:09:00,47.3,8.2,29.68,WSW,248,5.8,5.8,20,0.00,CLR,,0.00,WeatherDisplay:10.37,2013-04-18 19:09:00,
2013-04-18 13:14:00,47.7,8.5,29.68,NW,315,4.6,4.6,20,0.00,CLR,,0.00,WeatherDisplay:10.37,2013-04-18 19:14:00,
2013-04-18 13:19:00,48.2,6.6,29.67,NW,315,8.1,8.1,18,0.00,CLR,,0.00,WeatherDisplay:10.37,2013-04-18 19:19:00,
2013-04-18 13:24:00,48.7,4.5,29.68,WNW,292,10.4,10.4,16,0.00,CLR,,0.00,WeatherDisplay:10.37,2013-04-18 19:24:00,
2013-04-18 13:29:00,48.9,5.9,29.68,NNW,338,5.8,5.8,17,0.00,CLR,,0.00,WeatherDisplay:10.37,2013-04-18 19:29:00,
2013-04-18 13:34:00,48.4,6.7,29.68,NW,315,5.8,5.8,18,0.00,CLR,,0.00,WeatherDisplay:10.37,2013-04-18 19:34:00,
2013-04-18 13:39:00,48.9,4.6,29.68,NW,315,3.5,3.5,16,0.00,CLR,,0.00,WeatherDisplay:10.37,2013-04-18 19:39:00,
2013-04-18 13:44:00,48.2,5.3,29.68,WSW,248,3.5,3.5,17,0.00,CLR,,0.00,WeatherDisplay:10.37,2013-04-18 19:44:00,
2013-04-18 13:49:00,47.5,4.8,29.68,SW,225,6.9,6.9,17,0.00,CLR,,0.00,WeatherDisplay:10.37,2013-04-18 19:49:00,
2013-04-18 13:54:00,47.8,5.0,29.68,NW,315,8.1,8.1,17,0.00,CLR,,0.00,WeatherDisplay:10.37,2013-04-18 19:54:00,
2013-04-18 13:59:00,48.9,5.9,29.67,West,270,2.6,2.6,17,0.00,CLR,,0.00,WeatherDisplay:10.37,2013-04-18 19:59:00,
2013-04-18 14:04:00,49.5,6.4,29.68,WNW,292,8.1,8.1,17,0.00,CLR,,0.00,WeatherDisplay:10.37,2013-04-18 20:04:00,
2013-04-18 14:09:00,48.7,4.5,29.68,WSW,248,8.1,8.1,16,0.00,CLR,,0.00,WeatherDisplay:10.37,2013-04-18 20:09:00,
2013-04-18 14:14:00,49.3,4.9,29.68,SSW,202,6.9,6.9,16,0.00,CLR,,0.00,WeatherDisplay:10.37,2013-04-18 20:14:00,
2013-04-18 14:19:00,49.1,6.1,29.68,NNW,338,5.8,5.8,17,0.00,CLR,,0.00,WeatherDisplay:10.37,2013-04-18 20:19:00,
2013-04-18 14:24:00,48.4,5.5,29.68,NNW,338,5.8,5.8,17,0.00,CLR,,0.00,WeatherDisplay:10.37,2013-04-18 20:24:00,
2013-04-18 14:29:00,47.5,6.0,29.68,NW,315,9.2,9.2,18,0.00,CLR,,0.00,WeatherDisplay:10.37,2013-04-18 20:29:00,
2013-04-18 14:34:00,48.6,5.6,29.68,NW,315,8.5,8.5,17,0.00,CLR,,0.00,WeatherDisplay:10.37,2013-04-18 20:34:00,
2013-04-18 14:39:00,48.0,5.2,29.68,West,270,5.8,5.8,17,0.00,CLR,,0.00,WeatherDisplay:10.37,2013-04-18 20:39:00,
2013-04-18 14:44:00,47.8,6.3,29.68,NNW,338,5.8,5.8,18,0.00,CLR,,0.00,WeatherDisplay:10.37,2013-04-18 20:44:00,
2013-04-18 14:49:00,47.8,5.0,29.68,NW,315,8.1,8.1,17,0.00,CLR,,0.00,WeatherDisplay:10.37,2013-04-18 20:49:00,
2013-04-18 14:54:00,48.2,5.3,29.68,West,270,5.6,5.6,17,0.00,CLR,,0.00,WeatherDisplay:10.37,2013-04-18 20:54:00,
2013-04-18 14:59:00,48.6,5.6,29.68,North,0,9.2,9.2,17,0.00,CLR,,0.00,WeatherDisplay:10.37,2013-04-18 20:59:00,
2013-04-18 15:04:00,48.9,4.6,29.68,NNW,338,6.9,6.9,16,0.00,CLR,,0.00,WeatherDisplay:10.37,2013-04-18 21:04:00,
2013-04-18 15:09:00,48.9,4.6,29.68,NW,315,6.9,6.9,16,0.00,CLR,,0.00,WeatherDisplay:10.37,2013-04-18 21:09:00,
2013-04-18 15:14:00,48.0,3.9,29.68,WNW,292,6.9,6.9,16,0.00,CLR,,0.00,WeatherDisplay:10.37,2013-04-18 21:14:00,
2013-04-18 15:19:00,49.1,4.8,29.68,NNE,22,8.1,8.1,16,0.00,CLR,,0.00,WeatherDisplay:10.37,2013-04-18 21:19:00,
2013-04-18 15:24:00,50.0,4.1,29.68,WSW,248,3.5,3.5,15,0.00,CLR,,0.00,WeatherDisplay:10.37,2013-04-18 21:24:00,
2013-04-18 15:29:00,50.9,4.8,29.68,WSW,248,8.1,8.1,15,0.00,CLR,,0.00,WeatherDisplay:10.37,2013-04-18 21:29:00,
2013-04-18 15:34:00,50.9,1.7,29.68,WNW,292,11.5,11.5,13,0.00,CLR,,0.00,WeatherDisplay:10.37,2013-04-18 21:34:00,
2013-04-18 15:39:00,50.0,4.1,29.68,West,270,10.4,10.4,15,0.00,CLR,,0.00,WeatherDisplay:10.37,2013-04-18 21:39:00,
2013-04-18 15:44:00,50.0,4.1,29.68,West,270,4.9,4.9,15,0.00,CLR,,0.00,WeatherDisplay:10.37,2013-04-18 21:44:00,
2013-04-18 15:49:00,50.4,4.4,29.68,West,270,10.4,10.4,15,0.00,CLR,,0.00,WeatherDisplay:10.37,2013-04-18 21:49:00,
2013-04-18 15:54:00,50.0,2.6,29.69,NW,315,9.7,9.7,14,0.00,CLR,,0.00,WeatherDisplay:10.37,2013-04-18 21:54:00,
2013-04-18 15:59:00,49.6,3.8,29.69,WNW,292,5.8,5.8,15,0.00,CLR,,0.00,WeatherDisplay:10.37,2013-04-18 21:59:00,
2013-04-18 16:04:00,49.3,3.5,29.68,West,270,9.2,9.2,15,0.00,CLR,,0.00,WeatherDisplay:10.37,2013-04-18 22:04:00,
2013-04-18 16:09:00,50.0,6.8,29.68,WNW,292,6.9,6.9,17,0.00,CLR,,0.00,WeatherDisplay:10.37,2013-04-18 22:09:00,
2013-04-18 16:14:00,49.8,5.3,29.68,NW,315,8.1,8.1,16,0.00,CLR,,0.00,WeatherDisplay:10.37,2013-04-18 22:14:00,
2013-04-18 16:19:00,50.0,4.1,29.69,WNW,292,4.6,4.6,15,0.00,CLR,,0.00,WeatherDisplay:10.37,2013-04-18 22:19:00,
2013-04-18 16:24:00,50.5,5.9,29.68,NW,315,8.1,8.1,16,0.00,CLR,,0.00,WeatherDisplay:10.37,2013-04-18 22:24:00,
2013-04-18 16:29:00,50.5,4.5,29.68,West,270,4.6,4.6,15,0.00,CLR,,0.00,WeatherDisplay:10.37,2013-04-18 22:29:00,
2013-04-18 16:34:00,50.5,3.0,29.68,NW,315,5.9,5.9,14,0.00,CLR,,0.00,WeatherDisplay:10.37,2013-04-18 22:34:00,
2013-04-18 16:39:00,49.6,3.8,29.68,NNW,338,6.9,6.9,15,0.00,CLR,,0.00,WeatherDisplay:10.37,2013-04-18 22:39:00,
2013-04-18 16:44:00,49.3,4.9,29.68,West,270,5.8,5.8,16,0.00,CLR,,0.00,WeatherDisplay:10.37,2013-04-18 22:44:00,
2013-04-18 16:49:00,49.5,5.0,29.68,NNW,338,8.1,8.1,16,0.00,CLR,,0.00,WeatherDisplay:10.37,2013-04-18 22:49:00,
2013-04-18 16:54:00,49.6,5.2,29.68,NW,315,9.4,9.4,16,0.00,CLR,,0.00,WeatherDisplay:10.37,2013-04-18 22:54:00,
2013-04-18 16:59:00,50.4,5.8,29.69,NNW,338,8.3,8.3,16,0.00,CLR,,0.00,WeatherDisplay:10.37,2013-04-18 22:59:00,
2013-04-18 17:04:00,49.8,5.3,29.69,WNW,292,4.6,4.6,16,0.00,CLR,,0.00,WeatherDisplay:10.37,2013-04-18 23:04:00,
2013-04-18 17:09:00,49.1,4.8,29.69,NNE,22,9.2,9.2,16,0.00,CLR,,0.00,WeatherDisplay:10.37,2013-04-18 23:09:00,
2013-04-18 17:14:00,49.1,4.8,29.69,NNW,338,6.9,6.9,16,0.00,CLR,,0.00,WeatherDisplay:10.37,2013-04-18 23:14:00,
2013-04-18 17:19:00,49.5,5.0,29.69,WNW,292,12.7,12.7,16,0.00,CLR,,0.00,WeatherDisplay:10.37,2013-04-18 23:19:00,
2013-04-18 17:24:00,50.0,5.5,29.69,WNW,292,6.9,6.9,16,0.00,CLR,,0.00,WeatherDisplay:10.37,2013-04-18 23:24:00,
2013-04-18 17:29:00,50.0,4.1,29.69,West,270,5.8,5.8,15,0.00,CLR,,0.00,WeatherDisplay:10.37,2013-04-18 23:29:00,
2013-04-18 17:34:00,49.6,5.2,29.70,WNW,292,9.2,9.2,16,0.00,CLR,,0.00,WeatherDisplay:10.37,2013-04-18 23:34:00,
2013-04-18 17:39:00,48.9,4.6,29.70,NW,315,5.8,5.8,16,0.00,CLR,,0.00,WeatherDisplay:10.37,2013-04-18 23:39:00,
2013-04-18 17:44:00,49.1,4.8,29.70,NW,315,10.4,10.4,16,0.00,CLR,,0.00,WeatherDisplay:10.37,2013-04-18 23:44:00,
2013-04-18 17:49:00,48.6,4.3,29.71,NW,315,4.6,4.6,16,0.00,CLR,,0.00,WeatherDisplay:10.37,2013-04-18 23:49:00,
2013-04-18 17:54:00,48.4,2.8,29.71,West,270,8.1,8.1,15,0.00,CLR,,0.00,WeatherDisplay:10.37,2013-04-18 23:54:00,
2013-04-18 17:59:00,48.9,3.2,29.71,NW,315,10.4,10.4,15,0.00,CLR,,0.00,WeatherDisplay:10.37,2013-04-18 23:59:00,
2013-04-18 18:04:00,48.9,3.2,29.71,NNW,338,5.8,5.8,15,0.00,CLR,,0.00,WeatherDisplay:10.37,2013-04-19 00:04:00,
2013-04-18 18:09:00,49.1,3.3,29.71,North,0,6.9,6.9,15,0.00,CLR,,0.00,WeatherDisplay:10.37,2013-04-19 00:09:00,
2013-04-18 18:14:00,48.6,2.9,29.71,NW,315,3.6,3.6,15,0.00,CLR,,0.00,WeatherDisplay:10.37,2013-04-19 00:14:00,
2013-04-18 18:19:00,48.4,2.8,29.71,NW,315,9.2,9.2,15,0.00,CLR,,0.00,WeatherDisplay:10.37,2013-04-19 00:19:00,
2013-04-18 18:24:00,47.8,2.3,29.72,WNW,292,5.8,5.8,15,0.00,CLR,,0.00,WeatherDisplay:10.37,2013-04-19 00:24:00,
2013-04-18 18:29:00,47.1,3.1,29.72,NW,315,8.1,8.1,16,0.00,CLR,,0.00,WeatherDisplay:10.37,2013-04-19 00:29:00,
2013-04-18 18:34:00,47.3,3.3,29.72,WNW,292,3.5,3.5,16,0.00,CLR,,0.00,WeatherDisplay:10.37,2013-04-19 00:34:00,
2013-04-18 18:39:00,47.7,3.6,29.72,North,0,6.9,6.9,16,0.00,CLR,,0.00,WeatherDisplay:10.37,2013-04-19 00:39:00,
2013-04-18 18:44:00,47.5,3.4,29.72,SSW,202,4.6,4.6,16,0.00,CLR,,0.00,WeatherDisplay:10.37,2013-04-19 00:44:00,
2013-04-18 18:49:00,47.1,1.7,29.72,NW,315,6.9,6.9,15,0.00,CLR,,0.00,WeatherDisplay:10.37,2013-04-19 00:49:00,
2013-04-18 18:54:00,46.9,3.0,29.73,West,270,5.8,5.8,16,0.00,CLR,,0.00,WeatherDisplay:10.37,2013-04-19 00:54:00,
2013-04-18 18:59:00,47.1,3.1,29.73,NW,315,5.8,5.8,16,0.00,CLR,,0.00,WeatherDisplay:10.37,2013-04-19 00:59:00,
2013-04-18 19:04:00,46.8,2.8,29.73,West,270,6.9,6.9,16,0.00,CLR,,0.00,WeatherDisplay:10.37,2013-04-19 01:04:00,
2013-04-18 19:09:00,46.4,2.6,29.73,WNW,292,4.6,4.6,16,0.00,CLR,,0.00,WeatherDisplay:10.37,2013-04-19 01:09:00,
2013-04-18 19:14:00,46.6,2.7,29.73,NW,315,7.1,7.1,16,0.00,CLR,,0.00,WeatherDisplay:10.37,2013-04-19 01:14:00,
2013-04-18 19:19:00,46.6,2.7,29.73,NNW,338,5.8,5.8,16,0.00,CLR,,0.00,WeatherDisplay:10.37,2013-04-19 01:19:00,
2013-04-18 19:24:00,46.2,2.4,29.73,NNW,338,8.1,8.1,16,0.00,CLR,,0.00,WeatherDisplay:10.37,2013-04-19 01:24:00,
2013-04-18 19:29:00,45.5,1.8,29.74,West,270,5.8,5.8,16,0.00,CLR,,0.00,WeatherDisplay:10.37,2013-04-19 01:29:00,
2013-04-18 19:34:00,45.1,2.8,29.74,NW,315,3.5,3.5,17,0.00,CLR,,0.00,WeatherDisplay:10.37,2013-04-19 01:34:00,
2013-04-18 19:39:00,45.0,2.7,29.74,WSW,248,4.6,4.6,17,0.00,CLR,,0.00,WeatherDisplay:10.37,2013-04-19 01:39:00,
2013-04-18 19:44:00,44.6,2.4,29.74,WNW,292,4.6,4.6,17,0.00,CLR,,0.00,WeatherDisplay:10.37,2013-04-19 01:44:00,
2013-04-18 19:49:00,44.4,2.2,29.74,NNW,338,4.6,4.6,17,0.00,CLR,,0.00,WeatherDisplay:10.37,2013-04-19 01:49:00,
2013-04-18 19:54:00,44.2,2.1,29.74,NW,315,3.5,3.5,17,0.00,CLR,,0.00,WeatherDisplay:10.37,2013-04-19 01:54:00,
2013-04-18 19:59:00,44.1,3.2,29.74,NW,315,4.6,4.6,18,0.00,CLR,,0.00,WeatherDisplay:10.37,2013-04-19 01:59:00,
2013-04-18 20:04:00,43.9,3.0,29.75,NW,315,4.7,4.7,18,0.00,CLR,,0.00,WeatherDisplay:10.37,2013-04-19 02:04:00,
2013-04-18 20:09:00,43.9,3.0,29.75,WNW,292,2.4,2.4,18,0.00,CLR,,0.00,WeatherDisplay:10.37,2013-04-19 02:09:00,
2013-04-18 20:14:00,43.5,2.7,29.75,West,270,6.2,6.2,18,0.00,CLR,,0.00,WeatherDisplay:10.37,2013-04-19 02:14:00,
2013-04-18 20:19:00,43.5,2.7,29.76,NNW,338,6.0,6.0,18,0.00,CLR,,0.00,WeatherDisplay:10.37,2013-04-19 02:19:00,
2013-04-18 20:24:00,43.3,4.9,29.76,WNW,292,3.5,3.5,20,0.00,CLR,,0.00,WeatherDisplay:10.37,2013-04-19 02:24:00,
2013-04-18 20:29:00,43.2,4.7,29.76,WNW,292,3.5,3.5,20,0.00,CLR,,0.00,WeatherDisplay:10.37,2013-04-19 02:29:00,
2013-04-18 20:34:00,43.0,4.6,29.76,WNW,292,3.5,3.5,20,0.00,CLR,,0.00,WeatherDisplay:10.37,2013-04-19 02:34:00,
2013-04-18 20:39:00,42.8,4.4,29.77,NW,315,4.0,4.0,20,0.00,CLR,,0.00,WeatherDisplay:10.37,2013-04-19 02:39:00,
2013-04-18 20:44:00,42.6,4.3,29.77,NW,315,5.8,5.8,20,0.00,CLR,,0.00,WeatherDisplay:10.37,2013-04-19 02:44:00,
2013-04-18 20:49:00,42.6,4.3,29.78,WNW,292,4.9,4.9,20,0.00,CLR,,0.00,WeatherDisplay:10.37,2013-04-19 02:49:00,
2013-04-18 20:54:00,42.4,4.1,29.78,WNW,292,3.5,3.5,20,0.00,CLR,,0.00,WeatherDisplay:10.37,2013-04-19 02:54:00,
2013-04-18 20:59:00,42.3,4.0,29.79,WNW,292,4.6,4.6,20,0.00,CLR,,0.00,WeatherDisplay:10.37,2013-04-19 02:59:00,
2013-04-18 21:04:00,42.1,3.8,29.79,WNW,292,2.3,2.3,20,0.00,CLR,,0.00,WeatherDisplay:10.37,2013-04-19 03:04:00,
2013-04-18 21:09:00,42.1,4.9,29.79,WNW,292,3.5,3.5,21,0.00,CLR,,0.00,WeatherDisplay:10.37,2013-04-19 03:09:00,
2013-04-18 21:14:00,41.9,4.7,29.79,West,270,3.6,3.6,21,0.00,CLR,,0.00,WeatherDisplay:10.37,2013-04-19 03:14:00,
2013-04-18 21:19:00,41.7,4.6,29.80,NNW,338,4.6,4.6,21,0.00,CLR,,0.00,WeatherDisplay:10.37,2013-04-19 03:19:00,
2013-04-18 21:24:00,41.5,4.4,29.80,NNE,22,4.6,7.1,21,0.00,CLR,,0.00,WeatherDisplay:10.37,2013-04-19 03:24:00,
2013-04-18 21:29:00,41.4,4.3,29.80,NW,315,6.9,6.9,21,0.00,CLR,,0.00,WeatherDisplay:10.37,2013-04-19 03:29:00,
2013-04-18 21:34:00,41.4,4.3,29.80,WNW,292,4.6,4.6,21,0.00,CLR,,0.00,WeatherDisplay:10.37,2013-04-19 03:34:00,
2013-04-18 21:39:00,41.4,5.3,29.80,NNW,338,2.3,2.3,22,0.00,CLR,,0.00,WeatherDisplay:10.37,2013-04-19 03:39:00,
2013-04-18 21:44:00,41.2,5.1,29.81,WNW,292,4.6,4.6,22,0.00,CLR,,0.00,WeatherDisplay:10.37,2013-04-19 03:44:00,
2013-04-18 21:49:00,41.0,5.0,29.81,NW,315,4.6,4.6,22,0.00,CLR,,0.00,WeatherDisplay:10.37,2013-04-19 03:49:00,
2013-04-18 21:54:00,40.8,4.8,29.81,WNW,292,4.6,4.6,22,0.00,CLR,,0.00,WeatherDisplay:10.37,2013-04-19 03:54:00,
2013-04-18 21:59:00,40.6,4.7,29.81,NW,315,3.5,3.5,22,0.00,CLR,,0.00,WeatherDisplay:10.37,2013-04-19 03:59:00,
2013-04-18 22:01:00,40.6,4.7,29.81,NW,315,2.3,2.3,22,0.00,CLR,,0.00,WeatherDisplay:10.37,2013-04-19 04:01:00,
2013-04-18 22:06:00,40.5,5.5,29.81,WNW,292,2.3,2.3,23,0.00,CLR,,0.00,WeatherDisplay:10.37,2013-04-19 04:06:00,
2013-04-18 22:11:00,40.3,5.4,29.81,NW,315,2.3,2.3,23,0.00,CLR,,0.00,WeatherDisplay:10.37,2013-04-19 04:11:00,
2013-04-18 22:16:00,39.9,5.0,29.81,North,0,3.5,3.5,23,0.00,CLR,,0.00,WeatherDisplay:10.37,2013-04-19 04:16:00,
2013-04-18 22:21:00,39.9,5.0,29.81,NNE,22,2.3,2.3,23,0.00,CLR,,0.00,WeatherDisplay:10.37,2013-04-19 04:21:00,
2013-04-18 22:26:00,39.6,4.7,29.81,North,0,2.4,2.4,23,0.00,CLR,,0.00,WeatherDisplay:10.37,2013-04-19 04:26:00,
2013-04-18 22:31:00,39.2,5.4,29.81,NW,315,2.3,2.3,24,0.00,CLR,,0.00,WeatherDisplay:10.37,2013-04-19 04:31:00,
2013-04-18 22:36:00,39.2,5.4,29.81,WNW,292,2.3,2.3,24,0.00,CLR,,0.00,WeatherDisplay:10.37,2013-04-19 04:36:00,
2013-04-18 22:41:00,38.8,5.1,29.81,NNW,338,2.3,2.3,24,0.00,CLR,,0.00,WeatherDisplay:10.37,2013-04-19 04:41:00,
2013-04-18 22:46:00,38.8,5.1,29.81,North,0,2.3,2.3,24,0.00,CLR,,0.00,WeatherDisplay:10.37,2013-04-19 04:46:00,
2013-04-18 22:51:00,38.7,5.8,29.81,WNW,292,4.6,4.6,25,0.00,CLR,,0.00,WeatherDisplay:10.37,2013-04-19 04:51:00,
2013-04-18 22:56:00,38.7,5.8,29.81,West,270,4.0,4.0,25,0.00,CLR,,0.00,WeatherDisplay:10.37,2013-04-19 04:56:00,
2013-04-18 23:01:00,38.7,5.8,29.81,WNW,292,2.3,2.3,25,0.00,CLR,,0.00,WeatherDisplay:10.37,2013-04-19 05:01:00,
2013-04-18 23:06:00,38.7,5.8,29.81,WNW,292,4.6,4.6,25,0.00,CLR,,0.00,WeatherDisplay:10.37,2013-04-19 05:06:00,
2013-04-18 23:11:00,38.8,6.0,29.82,North,0,4.6,4.6,25,0.00,CLR,,0.00,WeatherDisplay:10.37,2013-04-19 05:11:00,
2013-04-18 23:16:00,38.8,6.0,29.82,NW,315,3.3,3.3,25,0.00,CLR,,0.00,WeatherDisplay:10.37,2013-04-19 05:16:00,
2013-04-18 23:21:00,38.8,6.0,29.82,NW,315,4.6,4.6,25,0.00,CLR,,0.00,WeatherDisplay:10.37,2013-04-19 05:21:00,
2013-04-18 23:26:00,38.7,5.8,29.82,North,0,2.3,2.3,25,0.00,CLR,,0.00,WeatherDisplay:10.37,2013-04-19 05:26:00,
2013-04-18 23:31:00,38.5,5.6,29.83,NNE,22,1.2,1.2,25,0.00,CLR,,0.00,WeatherDisplay:10.37,2013-04-19 05:31:00,
2013-04-18 23:36:00,38.3,4.6,29.83,NNW,338,1.2,1.2,24,0.00,CLR,,0.00,WeatherDisplay:10.37,2013-04-19 05:36:00,
2013-04-18 23:41:00,38.1,5.3,29.83,North,0,2.2,2.2,25,0.00,CLR,,0.00,WeatherDisplay:10.37,2013-04-19 05:41:00,
2013-04-18 23:46:00,37.9,6.0,29.83,NW,315,2.3,2.3,26,0.00,CLR,,0.00,WeatherDisplay:10.37,2013-04-19 05:46:00,
2013-04-18 23:51:00,37.8,5.9,29.83,North,0,1.2,1.2,26,0.00,CLR,,0.00,WeatherDisplay:10.37,2013-04-19 05:51:00,
2013-04-18 23:56:00,37.6,5.7,29.83,NNW,338,2.3,2.3,26,0.00,CLR,,0.00,WeatherDisplay:10.37,2013-04-19 05:56:00,